createdAt,value
2022-08-16T00:00:53.362Z,19.4
2022-08-16T00:02:52.312Z,19.4
2022-08-16T00:04:51.600Z,19.4
2022-08-16T00:06:49.975Z,19.4
2022-08-16T00:08:52.674Z,19.3
2022-08-16T00:10:53.723Z,19.2
2022-08-16T00:12:51.473Z,19.2
2022-08-16T00:14:50.355Z,19.1
2022-08-16T00:17:19.610Z,19.1
2022-08-16T00:18:50.706Z,19.1
2022-08-16T00:20:53.363Z,19.0
2022-08-16T00:22:51.845Z,19.0
2022-08-16T00:24:51.837Z,18.9
2022-08-16T00:26:51.322Z,18.8
2022-08-16T00:28:55.394Z,18.8
2022-08-16T00:30:53.407Z,18.7
2022-08-16T00:32:50.535Z,18.6
2022-08-16T00:34:54.629Z,18.6
2022-08-16T00:36:58.485Z,18.6
2022-08-16T00:38:50.466Z,18.5
2022-08-16T00:40:54.910Z,18.5
2022-08-16T00:42:56.927Z,18.4
2022-08-16T00:44:51.561Z,18.2
2022-08-16T00:47:06.878Z,18.2
2022-08-16T00:48:50.921Z,18.2
2022-08-16T00:50:56.771Z,18.2
2022-08-16T00:52:55.132Z,18.0
2022-08-16T00:54:53.532Z,18.0
2022-08-16T00:57:00.558Z,18.0
2022-08-16T00:58:51.693Z,17.9
2022-08-16T01:00:54.911Z,17.8
2022-08-16T01:02:51.720Z,17.8
2022-08-16T01:05:12.319Z,17.8
2022-08-16T01:07:03.320Z,17.7
2022-08-16T01:08:51.416Z,17.6
2022-08-16T01:10:50.226Z,17.6
2022-08-16T01:12:50.719Z,17.6
2022-08-16T01:14:53.725Z,17.6
2022-08-16T01:16:50.029Z,17.5
2022-08-16T01:18:50.074Z,17.4
2022-08-16T01:20:51.621Z,17.4
2022-08-16T01:22:57.152Z,17.3
2022-08-16T01:24:56.110Z,17.3
2022-08-16T01:26:50.821Z,17.3
2022-08-16T01:28:50.978Z,17.2
2022-08-16T01:30:50.905Z,17.2
2022-08-16T01:33:15.880Z,17.2
2022-08-16T01:34:57.390Z,17.2
2022-08-16T01:37:01.479Z,17.1
2022-08-16T01:38:59.503Z,17.1
2022-08-16T01:40:50.981Z,17.0
2022-08-16T01:42:56.290Z,17.0
2022-08-16T01:44:52.669Z,17.0
2022-08-16T01:46:50.515Z,17.0
2022-08-16T01:48:51.350Z,16.9
2022-08-16T01:51:17.344Z,16.9
2022-08-16T01:52:51.682Z,16.9
2022-08-16T01:54:53.822Z,16.8
2022-08-16T01:56:53.665Z,16.8
2022-08-16T01:58:50.236Z,16.8
2022-08-16T02:00:51.379Z,16.7
2022-08-16T02:02:54.184Z,16.7
2022-08-16T02:04:55.357Z,16.7
2022-08-16T02:06:51.595Z,16.6
2022-08-16T02:08:51.530Z,16.6
2022-08-16T02:10:50.480Z,16.6
2022-08-16T02:13:01.449Z,16.6
2022-08-16T02:14:52.316Z,16.5
2022-08-16T02:16:52.539Z,16.5
2022-08-16T02:18:51.696Z,16.4
2022-08-16T02:20:53.992Z,16.4
2022-08-16T02:22:51.492Z,16.4
2022-08-16T02:24:52.670Z,16.4
2022-08-16T02:26:50.506Z,16.3
2022-08-16T02:28:53.116Z,16.3
2022-08-16T02:30:52.645Z,16.3
2022-08-16T02:32:52.249Z,16.3
2022-08-16T02:34:56.674Z,16.2
2022-08-16T02:36:51.277Z,16.2
2022-08-16T02:38:52.162Z,16.2
2022-08-16T02:40:50.893Z,16.2
2022-08-16T02:42:51.805Z,16.1
2022-08-16T02:44:52.347Z,16.1
2022-08-16T02:46:54.255Z,16.1
2022-08-16T02:48:50.215Z,16.1
2022-08-16T02:51:11.898Z,16.0
2022-08-16T02:52:50.353Z,16.0
2022-08-16T02:54:56.505Z,16.0
2022-08-16T02:56:54.003Z,16.0
2022-08-16T02:58:50.041Z,16.0
2022-08-16T03:00:52.516Z,15.9
2022-08-16T03:02:56.974Z,15.9
2022-08-16T03:04:54.368Z,15.9
2022-08-16T03:06:57.595Z,15.9
2022-08-16T03:08:53.753Z,15.9
2022-08-16T03:10:59.549Z,15.8
2022-08-16T03:12:57.241Z,15.8
2022-08-16T03:14:50.535Z,15.8
2022-08-16T03:17:02.328Z,15.8
2022-08-16T03:18:50.275Z,15.8
2022-08-16T03:20:56.358Z,15.8
2022-08-16T03:22:50.436Z,15.8
2022-08-16T03:24:50.371Z,15.8
2022-08-16T03:26:51.791Z,15.7
2022-08-16T03:28:52.495Z,15.7
2022-08-16T03:30:50.431Z,15.7
2022-08-16T03:32:52.600Z,15.6
2022-08-16T03:34:50.525Z,15.6
2022-08-16T03:36:50.915Z,15.6
2022-08-16T03:38:50.855Z,15.6
2022-08-16T03:40:51.605Z,15.6
2022-08-16T03:43:21.580Z,15.6
2022-08-16T03:45:04.832Z,15.6
2022-08-16T03:46:50.627Z,15.6
2022-08-16T03:48:51.398Z,15.6
2022-08-16T03:51:01.041Z,15.5
2022-08-16T03:52:50.565Z,15.5
2022-08-16T03:55:00.145Z,15.5
2022-08-16T03:56:59.212Z,15.5
2022-08-16T03:58:53.026Z,15.5
2022-08-16T04:01:00.113Z,15.5
2022-08-16T04:02:50.205Z,15.5
2022-08-16T04:04:50.450Z,15.5
2022-08-16T04:06:51.535Z,15.6
2022-08-16T04:08:51.205Z,15.6
2022-08-16T04:10:52.533Z,15.6
2022-08-16T04:13:04.937Z,15.6
2022-08-16T04:14:52.022Z,15.6
2022-08-16T04:16:51.429Z,15.7
2022-08-16T04:18:50.357Z,15.7
2022-08-16T04:20:50.892Z,15.6
2022-08-16T04:22:50.951Z,15.6
2022-08-16T04:24:59.845Z,15.6
2022-08-16T04:26:50.803Z,15.6
2022-08-16T04:29:23.376Z,15.6
2022-08-16T04:30:52.257Z,15.6
2022-08-16T04:32:50.790Z,15.5
2022-08-16T04:34:50.225Z,15.5
2022-08-16T04:36:50.727Z,15.5
2022-08-16T04:38:52.951Z,15.5
2022-08-16T04:40:51.055Z,15.5
2022-08-16T04:42:51.557Z,15.5
2022-08-16T04:44:56.412Z,15.5
2022-08-16T04:47:21.357Z,15.5
2022-08-16T04:48:50.501Z,15.5
2022-08-16T04:50:51.238Z,15.5
2022-08-16T04:52:50.625Z,15.5
2022-08-16T04:54:50.826Z,15.5
2022-08-16T04:56:54.231Z,15.5
2022-08-16T04:58:51.303Z,15.5
2022-08-16T05:00:50.609Z,15.7
2022-08-16T05:03:07.203Z,15.7
2022-08-16T05:04:51.852Z,15.8
2022-08-16T05:06:50.209Z,16.2
2022-08-16T05:08:56.905Z,16.3
2022-08-16T05:10:50.232Z,16.3
2022-08-16T05:12:52.469Z,16.3
2022-08-16T05:15:03.424Z,16.4
2022-08-16T05:16:52.607Z,16.4
2022-08-16T05:18:50.603Z,16.4
2022-08-16T05:21:12.544Z,16.4
2022-08-16T05:22:56.085Z,16.4
2022-08-16T05:24:55.984Z,16.5
2022-08-16T05:26:52.668Z,16.5
2022-08-16T05:28:56.329Z,16.5
2022-08-16T05:30:50.947Z,16.5
2022-08-16T05:32:50.979Z,16.5
2022-08-16T05:34:51.022Z,16.6
2022-08-16T05:36:51.828Z,16.6
2022-08-16T05:38:53.414Z,16.6
2022-08-16T05:41:02.157Z,16.6
2022-08-16T05:42:51.178Z,16.6
2022-08-16T05:44:51.098Z,16.7
2022-08-16T05:46:51.908Z,16.7
2022-08-16T05:49:09.178Z,16.8
2022-08-16T05:50:53.648Z,17.0
2022-08-16T05:52:50.757Z,17.0
2022-08-16T05:55:02.129Z,17.1
2022-08-16T05:56:51.688Z,17.1
2022-08-16T05:58:51.432Z,17.2
2022-08-16T06:00:50.828Z,17.2
2022-08-16T06:02:50.818Z,17.3
2022-08-16T06:04:54.556Z,17.3
2022-08-16T06:06:58.010Z,17.3
2022-08-16T06:08:53.286Z,17.4
2022-08-16T06:11:13.699Z,17.5
2022-08-16T06:12:56.539Z,17.6
2022-08-16T06:14:51.769Z,17.6
2022-08-16T06:16:55.333Z,17.7
2022-08-16T06:18:51.637Z,17.7
2022-08-16T06:21:00.861Z,17.8
2022-08-16T06:23:17.988Z,17.9
2022-08-16T06:24:56.284Z,18.0
2022-08-16T06:26:58.874Z,18.1
2022-08-16T06:28:53.390Z,18.1
2022-08-16T06:30:53.528Z,18.2
2022-08-16T06:32:51.309Z,18.4
2022-08-16T06:35:03.431Z,18.4
2022-08-16T06:36:59.967Z,18.5
2022-08-16T06:38:57.238Z,18.6
2022-08-16T06:40:50.136Z,18.6
2022-08-16T06:42:57.901Z,18.7
2022-08-16T06:44:50.640Z,18.8
2022-08-16T06:46:51.541Z,18.8
2022-08-16T06:48:54.334Z,18.9
2022-08-16T06:50:50.230Z,19.0
2022-08-16T06:53:09.720Z,19.1
2022-08-16T06:54:52.410Z,19.2
2022-08-16T06:56:55.655Z,19.2
2022-08-16T06:58:50.637Z,19.2
2022-08-16T07:00:50.764Z,19.3
2022-08-16T07:02:52.976Z,19.4
2022-08-16T07:04:53.791Z,19.4
2022-08-16T07:06:51.700Z,19.4
2022-08-16T07:08:50.793Z,19.5
2022-08-16T07:10:51.199Z,19.6
2022-08-16T07:13:14.996Z,19.7
2022-08-16T07:14:50.338Z,19.7
2022-08-16T07:16:51.487Z,19.8
2022-08-16T07:19:03.170Z,19.9
2022-08-16T07:20:50.855Z,20.0
2022-08-16T07:23:00.074Z,20.0
2022-08-16T07:24:50.986Z,20.0
2022-08-16T07:26:50.241Z,20.2
2022-08-16T07:28:50.523Z,20.2
2022-08-16T07:30:50.411Z,20.2
2022-08-16T07:32:52.702Z,20.3
2022-08-16T07:34:52.527Z,20.4
2022-08-16T07:36:59.782Z,20.4
2022-08-16T07:38:50.898Z,20.6
2022-08-16T07:41:10.906Z,20.7
2022-08-16T07:42:52.256Z,20.7
2022-08-16T07:44:51.507Z,20.8
2022-08-16T07:46:57.048Z,20.9
2022-08-16T07:48:50.014Z,20.9
2022-08-16T07:51:09.267Z,20.9
2022-08-16T07:52:50.994Z,21.0
2022-08-16T07:54:53.932Z,21.0
2022-08-16T07:56:53.381Z,21.1
2022-08-16T07:58:58.675Z,21.1
2022-08-16T08:00:52.187Z,21.2
2022-08-16T08:02:54.877Z,21.3
2022-08-16T08:04:50.570Z,21.4
2022-08-16T08:06:51.677Z,21.4
2022-08-16T08:08:59.733Z,21.6
2022-08-16T08:10:51.938Z,21.6
2022-08-16T08:12:59.655Z,21.6
2022-08-16T08:14:50.997Z,21.7
2022-08-16T08:16:50.430Z,21.8
2022-08-16T08:19:03.236Z,21.8
2022-08-16T08:21:00.213Z,21.8
2022-08-16T08:22:51.044Z,21.9
2022-08-16T08:24:59.777Z,22.0
2022-08-16T08:26:51.075Z,22.1
2022-08-16T08:28:50.512Z,22.2
2022-08-16T08:31:03.356Z,22.2
2022-08-16T08:33:01.486Z,22.2
2022-08-16T08:34:51.246Z,22.3
2022-08-16T08:36:55.005Z,22.4
2022-08-16T08:38:50.887Z,22.4
2022-08-16T08:40:50.040Z,22.4
2022-08-16T08:43:11.610Z,22.5
2022-08-16T08:44:50.764Z,22.6
2022-08-16T08:47:05.651Z,22.7
2022-08-16T08:49:02.797Z,22.8
2022-08-16T08:50:51.268Z,22.8
2022-08-16T08:52:53.917Z,22.9
2022-08-16T08:54:51.935Z,23.0
2022-08-16T08:56:52.687Z,23.0
2022-08-16T08:59:16.303Z,23.0
2022-08-16T09:00:52.275Z,23.0
2022-08-16T09:02:53.078Z,23.2
2022-08-16T09:04:52.897Z,23.2
2022-08-16T09:06:50.314Z,23.2
2022-08-16T09:08:50.212Z,23.3
2022-08-16T09:11:07.547Z,23.5
2022-08-16T09:12:52.632Z,23.6
2022-08-16T09:14:51.920Z,23.8
2022-08-16T09:17:31.835Z,23.8
2022-08-16T09:21:02.202Z,24.0
2022-08-16T09:22:54.740Z,24.0
2022-08-16T09:25:12.439Z,24.1
2022-08-16T09:26:52.997Z,24.1
2022-08-16T09:29:24.310Z,24.2
2022-08-16T09:30:51.479Z,24.3
2022-08-16T09:32:51.450Z,24.4
2022-08-16T09:34:53.101Z,24.6
2022-08-16T09:36:57.404Z,24.6
2022-08-16T09:39:00.294Z,24.8
2022-08-16T09:40:53.673Z,24.9
2022-08-16T09:43:00.233Z,25.0
2022-08-16T09:45:18.739Z,25.0
2022-08-16T09:46:58.092Z,25.1
2022-08-16T09:48:56.689Z,25.2
2022-08-16T09:50:56.300Z,25.2
2022-08-16T09:52:51.252Z,25.3
2022-08-16T09:54:51.087Z,25.3
2022-08-16T09:56:54.613Z,25.3
2022-08-16T09:59:08.693Z,25.4
2022-08-16T10:00:50.336Z,25.4
2022-08-16T10:02:52.284Z,25.5
2022-08-16T10:04:55.875Z,25.5
2022-08-16T10:06:53.762Z,25.5
2022-08-16T10:09:11.324Z,25.6
2022-08-16T10:10:50.757Z,25.6
2022-08-16T10:12:57.588Z,25.6
2022-08-16T10:14:50.432Z,25.6
2022-08-16T10:17:02.818Z,25.6
2022-08-16T10:19:08.610Z,25.6
2022-08-16T10:20:50.870Z,25.6
2022-08-16T10:23:09.840Z,25.6
2022-08-16T10:25:00.654Z,25.6
2022-08-16T10:27:26.461Z,25.6
2022-08-16T10:28:50.887Z,25.6
2022-08-16T10:30:59.976Z,25.5
2022-08-16T10:32:51.348Z,25.5
2022-08-16T10:34:53.982Z,25.5
2022-08-16T10:36:54.973Z,25.5
2022-08-16T10:38:52.505Z,25.5
2022-08-16T10:40:50.560Z,25.6
2022-08-16T10:42:50.905Z,25.6
2022-08-16T10:44:55.671Z,25.6
2022-08-16T10:46:50.847Z,25.7
2022-08-16T10:48:52.032Z,25.7
2022-08-16T10:50:50.220Z,25.8
2022-08-16T10:52:59.839Z,25.9
2022-08-16T10:55:44.025Z,25.9
2022-08-16T10:56:57.395Z,26.0
2022-08-16T10:58:51.648Z,26.0
2022-08-16T11:00:58.338Z,26.1
2022-08-16T11:03:01.885Z,26.2
2022-08-16T11:05:11.045Z,26.2
2022-08-16T11:09:24.372Z,26.3
2022-08-16T11:11:19.070Z,26.4
2022-08-16T11:12:53.292Z,26.5
2022-08-16T11:15:16.806Z,26.6
2022-08-16T11:17:11.482Z,26.6
2022-08-16T11:19:13.819Z,26.6
2022-08-16T11:20:51.076Z,26.7
2022-08-16T11:22:51.432Z,26.7
2022-08-16T11:25:15.299Z,26.8
2022-08-16T11:27:23.781Z,27.0
2022-08-16T11:29:15.225Z,27.1
2022-08-16T11:30:57.940Z,27.1
2022-08-16T11:32:50.912Z,27.2
2022-08-16T11:35:15.937Z,27.2
2022-08-16T11:37:01.693Z,27.3
2022-08-16T11:38:59.610Z,27.4
2022-08-16T11:40:53.619Z,27.4
2022-08-16T11:42:51.762Z,27.4
2022-08-16T11:44:57.412Z,27.5
2022-08-16T11:46:54.069Z,27.7
2022-08-16T11:48:50.165Z,27.8
2022-08-16T11:50:50.207Z,27.8
2022-08-16T11:52:50.781Z,27.8
2022-08-16T11:55:00.704Z,27.9
2022-08-16T11:56:57.966Z,27.9
2022-08-16T11:58:57.432Z,28.0
2022-08-16T12:00:54.044Z,28.0
2022-08-16T12:02:50.548Z,28.0
2022-08-16T12:04:53.675Z,28.0
2022-08-16T12:06:54.933Z,28.0
2022-08-16T12:08:49.964Z,28.0
2022-08-16T12:10:51.085Z,28.1
2022-08-16T12:12:52.433Z,28.1
2022-08-16T12:15:00.880Z,28.2
2022-08-16T12:16:57.330Z,28.2
2022-08-16T12:18:50.543Z,28.2
2022-08-16T12:21:00.105Z,28.2
2022-08-16T12:22:52.847Z,28.2
2022-08-16T12:24:53.062Z,28.2
2022-08-16T12:26:50.299Z,28.2
2022-08-16T12:28:56.943Z,28.3
2022-08-16T12:30:50.036Z,28.4
2022-08-16T12:32:58.614Z,28.4
2022-08-16T12:34:53.908Z,28.5
2022-08-16T12:36:50.513Z,28.5
2022-08-16T12:38:53.586Z,28.4
2022-08-16T12:40:57.592Z,28.5
2022-08-16T12:42:54.830Z,28.5
2022-08-16T12:44:50.859Z,28.5
2022-08-16T12:46:51.561Z,28.4
2022-08-16T12:48:53.188Z,28.4
2022-08-16T12:50:50.910Z,28.3
2022-08-16T12:52:54.207Z,28.3
2022-08-16T12:54:56.076Z,28.3
2022-08-16T12:56:51.071Z,28.3
2022-08-16T12:58:52.426Z,28.2
2022-08-16T13:00:50.565Z,28.2
2022-08-16T13:02:51.827Z,28.1
2022-08-16T13:04:53.423Z,28.1
2022-08-16T13:06:53.672Z,28.1
2022-08-16T13:08:51.903Z,28.2
2022-08-16T13:10:53.061Z,28.2
2022-08-16T13:12:49.991Z,28.2
2022-08-16T13:14:50.683Z,28.3
2022-08-16T13:16:51.055Z,28.3
2022-08-16T13:18:54.903Z,28.3
2022-08-16T13:20:51.746Z,28.3
2022-08-16T13:22:53.176Z,28.3
2022-08-16T13:24:51.656Z,28.2
2022-08-16T13:26:53.730Z,28.2
2022-08-16T13:28:50.314Z,28.2
2022-08-16T13:30:50.269Z,28.2
2022-08-16T13:32:53.141Z,28.2
2022-08-16T13:34:50.749Z,28.1
2022-08-16T13:36:50.650Z,28.1
2022-08-16T13:38:51.925Z,28.1
2022-08-16T13:40:50.900Z,28.0
2022-08-16T13:42:50.846Z,28.0
2022-08-16T13:44:58.939Z,28.0
2022-08-16T13:46:54.317Z,28.0
2022-08-16T13:48:52.855Z,28.0
2022-08-16T13:50:52.607Z,28.0
2022-08-16T13:52:50.697Z,28.0
2022-08-16T13:54:51.703Z,28.0
2022-08-16T13:56:50.902Z,28.1
2022-08-16T13:58:57.147Z,28.1
2022-08-16T14:00:54.554Z,28.1
2022-08-16T14:02:59.499Z,28.2
2022-08-16T14:05:06.071Z,28.4
2022-08-16T14:06:50.769Z,28.6
2022-08-16T14:09:07.327Z,28.6
2022-08-16T14:10:51.528Z,28.8
2022-08-16T14:12:54.211Z,29.0
2022-08-16T14:14:57.628Z,29.1
2022-08-16T14:16:50.235Z,29.1
2022-08-16T14:18:53.366Z,29.1
2022-08-16T14:20:51.701Z,29.3
2022-08-16T14:22:55.097Z,29.4
2022-08-16T14:24:50.538Z,29.5
2022-08-16T14:26:53.000Z,29.5
2022-08-16T14:28:51.102Z,29.5
2022-08-16T14:30:51.779Z,29.5
2022-08-16T14:32:52.497Z,29.6
2022-08-16T14:34:56.014Z,29.6
2022-08-16T14:36:53.424Z,29.5
2022-08-16T14:38:50.709Z,29.5
2022-08-16T14:40:56.128Z,29.5
2022-08-16T14:42:54.844Z,29.4
2022-08-16T14:44:50.577Z,29.3
2022-08-16T14:46:53.590Z,29.2
2022-08-16T14:48:53.704Z,29.2
2022-08-16T14:50:50.423Z,29.2
2022-08-16T14:53:00.225Z,29.3
2022-08-16T14:54:50.974Z,29.3
2022-08-16T14:56:56.876Z,29.3
2022-08-16T14:58:51.617Z,29.3
2022-08-16T15:00:52.615Z,29.2
2022-08-16T15:02:54.580Z,29.2
2022-08-16T15:04:50.163Z,29.1
2022-08-16T15:06:50.564Z,29.1
2022-08-16T15:08:51.277Z,29.1
2022-08-16T15:10:51.221Z,29.0
2022-08-16T15:12:51.430Z,29.0
2022-08-16T15:14:51.844Z,29.0
2022-08-16T15:16:51.415Z,29.0
2022-08-16T15:18:50.468Z,28.9
2022-08-16T15:20:51.101Z,29.0
2022-08-16T15:22:51.774Z,29.0
2022-08-16T15:24:52.083Z,29.0
2022-08-16T15:26:50.305Z,29.0
2022-08-16T15:28:51.389Z,29.0
2022-08-16T15:31:06.439Z,28.9
2022-08-16T15:32:50.876Z,28.8
2022-08-16T15:34:50.071Z,28.8
2022-08-16T15:36:52.362Z,28.8
2022-08-16T15:39:29.397Z,28.6
2022-08-16T15:40:59.804Z,28.6
2022-08-16T15:42:54.523Z,28.6
2022-08-16T15:44:58.806Z,28.5
2022-08-16T15:47:03.015Z,28.4
2022-08-16T15:48:52.649Z,28.4
2022-08-16T15:50:53.651Z,28.4
2022-08-16T15:52:50.874Z,28.3
2022-08-16T15:54:57.412Z,28.3
2022-08-16T15:56:50.768Z,28.2
2022-08-16T15:58:56.343Z,28.2
2022-08-16T16:00:51.702Z,28.2
2022-08-16T16:02:52.144Z,28.2
2022-08-16T16:04:54.170Z,28.2
2022-08-16T16:06:55.833Z,28.1
2022-08-16T16:08:51.114Z,28.1
2022-08-16T16:10:55.171Z,28.1
2022-08-16T16:12:55.263Z,28.1
2022-08-16T16:14:50.986Z,28.0
2022-08-16T16:16:54.445Z,28.0
2022-08-16T16:18:53.328Z,28.0
2022-08-16T16:20:52.386Z,28.0
2022-08-16T16:22:50.583Z,28.0
2022-08-16T16:24:50.510Z,28.0
2022-08-16T16:26:50.061Z,28.1
2022-08-16T16:29:15.291Z,28.1
2022-08-16T16:30:57.286Z,28.1
2022-08-16T16:32:50.460Z,28.1
2022-08-16T16:34:50.702Z,28.2
2022-08-16T16:36:54.685Z,28.2
2022-08-16T16:38:50.709Z,28.2
2022-08-16T16:40:54.961Z,28.2
2022-08-16T16:42:50.897Z,28.2
2022-08-16T16:45:02.155Z,28.3
2022-08-16T16:46:58.357Z,28.4
2022-08-16T16:48:52.153Z,28.4
2022-08-16T16:50:50.928Z,28.4
2022-08-16T16:52:53.783Z,28.4
2022-08-16T16:54:56.471Z,28.4
2022-08-16T16:56:51.160Z,28.4
2022-08-16T16:58:54.609Z,28.4
2022-08-16T17:00:59.915Z,28.4
2022-08-16T17:02:54.462Z,28.4
2022-08-16T17:04:50.056Z,28.4
2022-08-16T17:06:57.726Z,28.4
2022-08-16T17:08:52.296Z,28.4
2022-08-16T17:10:50.914Z,28.3
2022-08-16T17:12:57.300Z,28.3
2022-08-16T17:14:50.811Z,28.3
2022-08-16T17:16:51.442Z,28.2
2022-08-16T17:19:22.087Z,28.2
2022-08-16T17:20:53.546Z,28.2
2022-08-16T17:22:54.985Z,28.2
2022-08-16T17:24:53.122Z,28.1
2022-08-16T17:26:57.865Z,28.1
2022-08-16T17:29:11.746Z,28.0
2022-08-16T17:30:51.477Z,28.0
2022-08-16T17:32:55.192Z,28.2
2022-08-16T17:34:51.228Z,28.3
2022-08-16T17:36:54.960Z,28.4
2022-08-16T17:38:50.007Z,28.5
2022-08-16T17:41:00.781Z,28.5
2022-08-16T17:42:50.881Z,28.6
2022-08-16T17:44:50.791Z,28.6
2022-08-16T17:46:53.469Z,28.7
2022-08-16T17:48:50.417Z,28.7
2022-08-16T17:50:55.350Z,28.7
2022-08-16T17:52:51.710Z,28.7
2022-08-16T17:54:50.798Z,28.7
2022-08-16T17:56:50.261Z,28.7
2022-08-16T17:58:50.314Z,28.7
2022-08-16T18:00:50.418Z,28.6
2022-08-16T18:02:50.396Z,28.5
2022-08-16T18:04:50.733Z,28.2
2022-08-16T18:06:50.850Z,28.2
2022-08-16T18:09:04.239Z,28.1
2022-08-16T18:10:50.744Z,27.9
2022-08-16T18:12:56.421Z,27.8
2022-08-16T18:15:00.503Z,27.8
2022-08-16T18:16:50.781Z,27.6
2022-08-16T18:18:50.779Z,27.4
2022-08-16T18:20:50.654Z,27.2
2022-08-16T18:22:51.104Z,27.0
2022-08-16T18:24:50.235Z,26.9
2022-08-16T18:26:50.797Z,26.9
2022-08-16T18:28:50.761Z,26.8
2022-08-16T18:31:03.474Z,26.6
2022-08-16T18:32:51.605Z,26.5
2022-08-16T18:34:50.083Z,26.5
2022-08-16T18:36:50.354Z,26.4
2022-08-16T18:38:50.297Z,26.2
2022-08-16T18:40:50.200Z,26.0
2022-08-16T18:42:51.051Z,26.0
2022-08-16T18:44:50.044Z,26.0
2022-08-16T18:46:51.564Z,25.8
2022-08-16T18:48:50.447Z,25.7
2022-08-16T18:51:14.714Z,25.7
2022-08-16T18:52:51.127Z,25.5
2022-08-16T18:55:15.060Z,25.4
2022-08-16T18:56:58.663Z,25.3
2022-08-16T18:58:50.603Z,25.2
2022-08-16T19:00:57.885Z,25.0
2022-08-16T19:02:59.802Z,25.0
2022-08-16T19:04:58.960Z,25.0
2022-08-16T19:06:50.171Z,24.8
2022-08-16T19:08:50.074Z,24.7
2022-08-16T19:10:50.334Z,24.7
2022-08-16T19:12:50.744Z,24.6
2022-08-16T19:14:51.326Z,24.4
2022-08-16T19:16:50.690Z,24.3
2022-08-16T19:18:50.612Z,24.2
2022-08-16T19:20:50.809Z,24.1
2022-08-16T19:23:11.052Z,24.1
2022-08-16T19:24:50.385Z,24.0
2022-08-16T19:26:50.740Z,23.9
2022-08-16T19:29:08.726Z,23.8
2022-08-16T19:30:50.076Z,23.8
2022-08-16T19:32:50.869Z,23.8
2022-08-16T19:34:50.453Z,23.6
2022-08-16T19:36:50.910Z,23.6
2022-08-16T19:38:54.305Z,23.4
2022-08-16T19:40:50.653Z,23.4
2022-08-16T19:42:50.724Z,23.4
2022-08-16T19:44:50.765Z,23.2
2022-08-16T19:46:50.126Z,23.1
2022-08-16T19:48:50.165Z,23.0
2022-08-16T19:50:50.295Z,22.9
2022-08-16T19:52:50.083Z,22.9
2022-08-16T19:54:50.398Z,22.8
2022-08-16T19:56:50.735Z,22.7
2022-08-16T19:59:22.125Z,22.6
2022-08-16T20:00:56.695Z,22.6
2022-08-16T20:02:50.997Z,22.6
2022-08-16T20:04:50.670Z,22.4
2022-08-16T20:06:53.069Z,22.3
2022-08-16T20:08:50.131Z,22.3
2022-08-16T20:10:50.908Z,22.3
2022-08-16T20:13:03.218Z,22.2
2022-08-16T20:14:50.492Z,22.1
2022-08-16T20:16:50.734Z,22.0
2022-08-16T20:18:50.741Z,22.0
2022-08-16T20:20:50.768Z,21.9
2022-08-16T20:22:55.170Z,21.8
2022-08-16T20:24:55.905Z,21.8
2022-08-16T20:26:50.186Z,21.7
2022-08-16T20:28:55.675Z,21.7
2022-08-16T20:30:50.529Z,21.6
2022-08-16T20:32:51.615Z,21.6
2022-08-16T20:34:50.526Z,21.5
2022-08-16T20:36:50.707Z,21.4
2022-08-16T20:38:50.133Z,21.4
2022-08-16T20:40:50.238Z,21.4
2022-08-16T20:42:59.036Z,21.3
2022-08-16T20:44:50.137Z,21.2
2022-08-16T20:46:50.729Z,21.2
2022-08-16T20:48:50.754Z,21.2
2022-08-16T20:50:50.789Z,21.1
2022-08-16T20:52:51.951Z,21.0
2022-08-16T20:54:49.932Z,21.0
2022-08-16T20:56:50.331Z,20.9
2022-08-16T20:58:50.402Z,20.9
2022-08-16T21:00:50.657Z,20.8
2022-08-16T21:02:51.095Z,20.7
2022-08-16T21:04:50.707Z,20.7
2022-08-16T21:06:55.533Z,20.7
2022-08-16T21:08:54.725Z,20.6
2022-08-16T21:10:50.669Z,20.6
2022-08-16T21:12:51.657Z,20.5
2022-08-16T21:14:50.804Z,20.5
2022-08-16T21:16:50.097Z,20.4
2022-08-16T21:18:50.033Z,20.4
2022-08-16T21:20:50.288Z,20.3
2022-08-16T21:22:56.276Z,20.3
2022-08-16T21:24:54.584Z,20.3
2022-08-16T21:26:56.725Z,20.2
2022-08-16T21:28:51.883Z,20.2
2022-08-16T21:30:50.760Z,20.1
2022-08-16T21:32:51.622Z,20.1
2022-08-16T21:34:50.347Z,20.1
2022-08-16T21:36:50.679Z,20.0
2022-08-16T21:38:50.677Z,20.0
2022-08-16T21:40:52.215Z,19.9
2022-08-16T21:42:50.877Z,19.8
2022-08-16T21:44:50.031Z,19.8
2022-08-16T21:46:50.155Z,19.8
2022-08-16T21:48:49.979Z,19.7
2022-08-16T21:50:50.885Z,19.7
2022-08-16T21:52:51.006Z,19.7
2022-08-16T21:54:56.880Z,19.6
2022-08-16T21:56:50.407Z,19.6
2022-08-16T21:58:54.144Z,19.6
2022-08-16T22:00:50.406Z,19.6
2022-08-16T22:02:52.276Z,19.5
2022-08-16T22:04:50.308Z,19.5
2022-08-16T22:06:50.740Z,19.4
2022-08-16T22:08:51.576Z,19.4
2022-08-16T22:11:09.825Z,19.4
2022-08-16T22:12:51.967Z,19.4
2022-08-16T22:14:50.268Z,19.3
2022-08-16T22:16:50.401Z,19.2
2022-08-16T22:18:53.247Z,19.2
2022-08-16T22:20:50.009Z,19.2
2022-08-16T22:22:50.872Z,19.2
2022-08-16T22:24:50.179Z,19.2
2022-08-16T22:26:50.402Z,19.2
2022-08-16T22:28:50.236Z,19.2
2022-08-16T22:30:50.269Z,19.1
2022-08-16T22:32:50.880Z,19.1
2022-08-16T22:34:50.671Z,19.1
2022-08-16T22:36:50.544Z,19.0
2022-08-16T22:38:59.633Z,19.1
2022-08-16T22:40:50.751Z,19.1
2022-08-16T22:42:51.846Z,19.1
2022-08-16T22:44:50.029Z,19.1
2022-08-16T22:46:50.123Z,19.0
2022-08-16T22:48:50.520Z,19.0
2022-08-16T22:50:50.912Z,19.0
2022-08-16T22:52:57.809Z,19.0
2022-08-16T22:54:50.089Z,19.0
2022-08-16T22:56:50.374Z,19.0
2022-08-16T22:58:50.373Z,19.0
2022-08-16T23:00:50.348Z,18.9
2022-08-16T23:02:51.214Z,18.8
2022-08-16T23:04:50.895Z,18.8
2022-08-16T23:06:50.286Z,18.8
2022-08-16T23:08:50.355Z,18.7
2022-08-16T23:10:50.290Z,18.7
2022-08-16T23:12:51.137Z,18.6
2022-08-16T23:14:54.129Z,18.6
2022-08-16T23:16:50.444Z,18.6
2022-08-16T23:18:50.253Z,18.6
2022-08-16T23:20:50.541Z,18.5
2022-08-16T23:23:21.819Z,18.4
2022-08-16T23:24:57.412Z,18.4
2022-08-16T23:26:50.634Z,18.4
2022-08-16T23:28:49.967Z,18.4
2022-08-16T23:30:50.106Z,18.3
2022-08-16T23:32:50.851Z,18.3
2022-08-16T23:34:54.661Z,18.2
2022-08-16T23:36:49.953Z,18.2
2022-08-16T23:38:50.876Z,18.2
2022-08-16T23:40:50.785Z,18.2
2022-08-16T23:43:00.123Z,18.1
2022-08-16T23:44:59.921Z,18.1
2022-08-16T23:46:50.224Z,18.0
2022-08-16T23:49:45.230Z,18.0
2022-08-16T23:50:50.234Z,18.0
2022-08-16T23:52:56.162Z,18.0
2022-08-16T23:54:49.952Z,17.9
2022-08-16T23:56:50.295Z,17.9
2022-08-16T23:59:05.956Z,17.9
